createdAt,value
2018-05-07T00:00:19.808Z,59.65
2018-05-07T00:01:19.940Z,60.03
2018-05-07T00:02:20.080Z,60.51
2018-05-07T00:03:20.216Z,60.22
2018-05-07T00:04:20.357Z,60.70
2018-05-07T00:05:20.509Z,60.67
2018-05-07T00:06:20.646Z,61.63
2018-05-07T00:07:20.789Z,61.91
2018-05-07T00:08:21.024Z,61.72
2018-05-07T00:09:21.046Z,61.63
2018-05-07T00:10:21.217Z,61.44
2018-05-07T00:11:21.324Z,61.08
2018-05-07T00:12:21.466Z,60.99
2018-05-07T00:13:21.601Z,61.08
2018-05-07T00:14:21.742Z,60.61
2018-05-07T00:15:21.893Z,60.41
2018-05-07T00:16:22.033Z,60.22
2018-05-07T00:17:22.166Z,60.41
2018-05-07T00:18:22.304Z,59.94
2018-05-07T00:19:22.447Z,60.32
2018-05-07T00:20:22.587Z,59.75
2018-05-07T00:21:22.724Z,59.55
2018-05-07T00:22:22.937Z,59.94
2018-05-07T00:23:23.008Z,59.94
2018-05-07T00:24:23.135Z,60.38
2018-05-07T00:25:23.273Z,60.51
2018-05-07T00:26:23.414Z,60.38
2018-05-07T00:27:23.614Z,60.38
2018-05-07T00:28:23.728Z,60.00
2018-05-07T00:29:23.780Z,60.67
2018-05-07T00:30:23.923Z,60.67
2018-05-07T00:31:24.066Z,61.15
2018-05-07T00:32:24.201Z,60.58
2018-05-07T00:33:24.342Z,60.77
2018-05-07T00:34:24.485Z,60.77
2018-05-07T00:35:24.620Z,60.86
2018-05-07T00:36:24.758Z,61.34
2018-05-07T00:37:24.897Z,61.72
2018-05-07T00:38:25.036Z,61.34
2018-05-07T00:39:25.198Z,61.63
2018-05-07T00:40:25.316Z,61.41
2018-05-07T00:41:25.452Z,61.82
2018-05-07T00:42:25.595Z,61.54
2018-05-07T00:43:25.726Z,61.51
2018-05-07T00:44:25.865Z,61.51
2018-05-07T00:45:25.999Z,61.34
2018-05-07T00:46:26.135Z,61.05
2018-05-07T00:47:26.272Z,61.25
2018-05-07T00:48:26.411Z,61.25
2018-05-07T00:49:26.549Z,60.86
2018-05-07T00:50:26.684Z,60.77
2018-05-07T00:51:26.821Z,60.77
2018-05-07T00:52:26.969Z,61.02
2018-05-07T00:53:27.103Z,61.05
2018-05-07T00:54:27.246Z,61.44
2018-05-07T00:55:27.380Z,61.51
2018-05-07T00:56:27.572Z,61.60
2018-05-07T00:57:27.711Z,61.51
2018-05-07T00:58:27.847Z,61.60
2018-05-07T00:59:27.991Z,61.69
2018-05-07T01:00:28.131Z,61.72
2018-05-07T01:01:28.272Z,61.79
2018-05-07T01:02:28.410Z,61.54
2018-05-07T01:03:28.545Z,61.44
2018-05-07T01:04:28.681Z,61.44
2018-05-07T01:05:28.816Z,61.63
2018-05-07T01:06:28.950Z,61.54
2018-05-07T01:07:29.090Z,61.72
2018-05-07T01:08:29.226Z,61.72
2018-05-07T01:09:29.367Z,61.72
2018-05-07T01:10:29.511Z,61.15
2018-05-07T01:11:29.641Z,61.25
2018-05-07T01:12:29.782Z,61.34
2018-05-07T01:13:29.917Z,61.44
2018-05-07T01:14:30.056Z,60.58
2018-05-07T01:15:30.187Z,60.48
2018-05-07T01:16:30.326Z,60.48
2018-05-07T01:17:30.458Z,60.29
2018-05-07T01:18:30.605Z,60.38
2018-05-07T01:19:30.742Z,60.29
2018-05-07T01:20:30.879Z,60.58
2018-05-07T01:21:31.022Z,60.10
2018-05-07T01:22:31.152Z,60.29
2018-05-07T01:23:31.293Z,59.81
2018-05-07T01:24:31.441Z,59.91
2018-05-07T01:25:31.584Z,60.19
2018-05-07T01:26:31.719Z,59.91
2018-05-07T01:27:31.854Z,59.91
2018-05-07T01:28:32.009Z,60.29
2018-05-07T01:29:32.144Z,59.62
2018-05-07T01:30:32.279Z,59.33
2018-05-07T01:31:32.419Z,59.72
2018-05-07T01:32:32.554Z,59.72
2018-05-07T01:33:32.694Z,59.62
2018-05-07T01:34:32.828Z,60.38
2018-05-07T01:35:32.973Z,60.06
2018-05-07T01:36:33.107Z,60.35
2018-05-07T01:37:33.246Z,61.22
2018-05-07T01:38:33.381Z,61.12
2018-05-07T01:39:33.521Z,61.47
2018-05-07T01:40:33.745Z,62.46
2018-05-07T01:41:33.764Z,62.90
2018-05-07T01:42:33.901Z,62.33
2018-05-07T01:43:34.033Z,62.43
2018-05-07T01:44:34.183Z,62.33
2018-05-07T01:45:34.313Z,62.90
2018-05-07T01:46:34.457Z,62.74
2018-05-07T01:47:34.594Z,62.90
2018-05-07T01:48:34.731Z,62.52
2018-05-07T01:49:34.872Z,63.10
2018-05-07T01:50:35.019Z,62.71
2018-05-07T01:51:35.153Z,61.98
2018-05-07T01:52:35.293Z,62.27
2018-05-07T01:53:35.435Z,62.08
2018-05-07T01:54:35.566Z,61.88
2018-05-07T01:55:35.700Z,61.69
2018-05-07T01:56:35.842Z,61.79
2018-05-07T01:57:35.975Z,61.79
2018-05-07T01:58:36.112Z,61.60
2018-05-07T01:59:36.257Z,61.60
2018-05-07T02:00:36.392Z,61.60
2018-05-07T02:01:36.537Z,61.51
2018-05-07T02:02:36.675Z,61.51
2018-05-07T02:03:36.811Z,61.51
2018-05-07T02:04:36.950Z,61.12
2018-05-07T02:05:37.091Z,61.22
2018-05-07T02:06:37.231Z,61.12
2018-05-07T02:07:37.363Z,61.02
2018-05-07T02:08:37.503Z,60.26
2018-05-07T02:09:37.651Z,60.35
2018-05-07T02:10:37.795Z,60.06
2018-05-07T02:11:37.925Z,61.31
2018-05-07T02:12:38.916Z,61.12
2018-05-07T02:13:38.189Z,61.02
2018-05-07T02:14:38.335Z,61.60
2018-05-07T02:15:38.471Z,61.51
2018-05-07T02:16:38.607Z,61.51
2018-05-07T02:17:38.749Z,61.51
2018-05-07T02:18:38.887Z,61.31
2018-05-07T02:19:39.027Z,61.69
2018-05-07T02:20:39.167Z,61.41
2018-05-07T02:21:39.305Z,61.66
2018-05-07T02:22:39.442Z,61.69
2018-05-07T02:23:39.583Z,61.60
2018-05-07T02:24:39.717Z,61.69
2018-05-07T02:25:39.852Z,61.95
2018-05-07T02:26:39.992Z,61.76
2018-05-07T02:27:40.129Z,61.85
2018-05-07T02:28:40.256Z,61.85
2018-05-07T02:29:40.394Z,61.57
2018-05-07T02:30:40.535Z,61.66
2018-05-07T02:31:40.668Z,61.69
2018-05-07T02:32:40.804Z,61.02
2018-05-07T02:33:40.946Z,61.02
2018-05-07T02:34:41.084Z,61.47
2018-05-07T02:35:41.222Z,61.76
2018-05-07T02:36:41.363Z,61.47
2018-05-07T02:37:41.523Z,61.28
2018-05-07T02:38:41.670Z,61.66
2018-05-07T02:39:41.805Z,61.38
2018-05-07T02:40:42.045Z,61.47
2018-05-07T02:41:42.077Z,61.57
2018-05-07T02:42:42.214Z,61.57
2018-05-07T02:43:42.352Z,61.09
2018-05-07T02:44:42.491Z,61.19
2018-05-07T02:45:42.631Z,61.76
2018-05-07T02:46:42.765Z,61.66
2018-05-07T02:47:42.904Z,61.47
2018-05-07T02:48:43.042Z,61.76
2018-05-07T02:49:43.176Z,61.57
2018-05-07T02:50:43.928Z,61.95
2018-05-07T02:51:43.462Z,62.97
2018-05-07T02:52:43.605Z,62.30
2018-05-07T02:53:43.743Z,63.26
2018-05-07T02:54:43.882Z,63.07
2018-05-07T02:55:44.021Z,62.87
2018-05-07T02:56:44.159Z,63.07
2018-05-07T02:57:44.299Z,62.59
2018-05-07T02:58:44.439Z,62.40
2018-05-07T02:59:44.580Z,62.59
2018-05-07T03:00:44.722Z,62.59
2018-05-07T03:01:44.855Z,62.49
2018-05-07T03:02:45.000Z,62.59
2018-05-07T03:03:45.138Z,63.07
2018-05-07T03:04:45.278Z,62.87
2018-05-07T03:05:45.453Z,63.07
2018-05-07T03:06:45.589Z,63.26
2018-05-07T03:07:45.765Z,63.07
2018-05-07T03:08:45.867Z,62.87
2018-05-07T03:09:46.004Z,62.78
2018-05-07T03:10:46.137Z,62.68
2018-05-07T03:11:46.270Z,62.40
2018-05-07T03:12:46.408Z,62.59
2018-05-07T03:13:46.547Z,62.68
2018-05-07T03:14:46.677Z,62.68
2018-05-07T03:15:46.817Z,62.21
2018-05-07T03:16:46.955Z,63.07
2018-05-07T03:17:47.089Z,63.16
2018-05-07T03:18:47.224Z,63.07
2018-05-07T03:19:47.362Z,62.78
2018-05-07T03:20:47.495Z,63.16
2018-05-07T03:21:47.634Z,63.16
2018-05-07T03:22:47.777Z,63.07
2018-05-07T03:23:47.917Z,63.16
2018-05-07T03:24:48.063Z,62.87
2018-05-07T03:25:48.201Z,62.78
2018-05-07T03:26:48.342Z,63.26
2018-05-07T03:27:48.477Z,63.45
2018-05-07T03:28:48.612Z,64.12
2018-05-07T03:29:48.750Z,64.28
2018-05-07T03:30:48.890Z,64.28
2018-05-07T03:31:49.032Z,64.02
2018-05-07T03:32:49.166Z,63.42
2018-05-07T03:33:49.305Z,63.35
2018-05-07T03:34:49.445Z,63.07
2018-05-07T03:35:49.584Z,63.16
2018-05-07T03:36:49.723Z,63.45
2018-05-07T03:37:49.863Z,63.35
2018-05-07T03:38:50.004Z,63.16
2018-05-07T03:39:50.142Z,62.94
2018-05-07T03:40:50.279Z,63.23
2018-05-07T03:41:50.423Z,64.18
2018-05-07T03:42:50.558Z,64.75
2018-05-07T03:43:50.705Z,65.52
2018-05-07T03:44:50.837Z,65.33
2018-05-07T03:45:50.984Z,64.75
2018-05-07T03:46:51.122Z,65.52
2018-05-07T03:47:51.264Z,65.04
2018-05-07T03:48:51.411Z,64.75
2018-05-07T03:49:51.536Z,64.85
2018-05-07T03:50:51.669Z,64.65
2018-05-07T03:51:51.808Z,64.47
2018-05-07T03:52:51.945Z,64.65
2018-05-07T03:53:52.078Z,64.28
2018-05-07T03:54:52.218Z,63.99
2018-05-07T03:55:52.360Z,64.02
2018-05-07T03:56:52.495Z,63.89
2018-05-07T03:57:52.640Z,63.99
2018-05-07T03:58:52.765Z,64.09
2018-05-07T03:59:52.912Z,63.23
2018-05-07T04:00:53.051Z,63.89
2018-05-07T04:01:53.192Z,63.42
2018-05-07T04:02:53.323Z,63.23
2018-05-07T04:03:53.465Z,63.60
2018-05-07T04:04:53.605Z,63.32
2018-05-07T04:05:53.737Z,63.23
2018-05-07T04:06:53.890Z,63.42
2018-05-07T04:07:54.024Z,63.32
2018-05-07T04:08:54.166Z,63.51
2018-05-07T04:09:54.296Z,63.03
2018-05-07T04:10:54.433Z,63.23
2018-05-07T04:11:54.571Z,63.42
2018-05-07T04:12:54.707Z,63.23
2018-05-07T04:13:54.846Z,63.23
2018-05-07T04:14:54.989Z,63.42
2018-05-07T04:15:55.119Z,63.42
2018-05-07T04:16:55.256Z,63.51
2018-05-07T04:17:55.397Z,63.99
2018-05-07T04:18:55.537Z,64.28
2018-05-07T04:19:55.673Z,63.99
2018-05-07T04:20:55.809Z,63.99
2018-05-07T04:21:55.951Z,63.89
2018-05-07T04:22:56.089Z,64.28
2018-05-07T04:23:56.226Z,64.37
2018-05-07T04:24:56.362Z,63.80
2018-05-07T04:25:56.494Z,63.03
2018-05-07T04:26:56.629Z,63.32
2018-05-07T04:27:56.769Z,63.51
2018-05-07T04:28:56.908Z,63.32
2018-05-07T04:29:57.045Z,63.70
2018-05-07T04:30:57.181Z,63.60
2018-05-07T04:31:57.313Z,64.28
2018-05-07T04:32:57.448Z,64.18
2018-05-07T04:33:57.586Z,63.99
2018-05-07T04:34:57.732Z,64.28
2018-05-07T04:35:58.428Z,64.37
2018-05-07T04:36:57.975Z,63.70
2018-05-07T04:37:58.101Z,63.89
2018-05-07T04:38:58.245Z,63.23
2018-05-07T04:39:58.379Z,63.89
2018-05-07T04:40:58.523Z,64.31
2018-05-07T04:41:58.695Z,64.09
2018-05-07T04:42:58.798Z,64.28
2018-05-07T04:43:58.938Z,64.40
2018-05-07T04:44:59.074Z,63.99
2018-05-07T04:45:59.214Z,63.99
2018-05-07T04:46:59.353Z,63.80
2018-05-07T04:47:59.492Z,63.89
2018-05-07T04:48:59.634Z,64.78
2018-05-07T04:49:59.770Z,64.31
2018-05-07T04:50:59.909Z,64.65
2018-05-07T04:52:00.052Z,64.78
2018-05-07T04:53:00.187Z,64.40
2018-05-07T04:54:00.323Z,64.31
2018-05-07T04:55:00.497Z,63.93
2018-05-07T04:56:00.605Z,63.93
2018-05-07T04:57:00.736Z,64.22
2018-05-07T04:58:00.868Z,64.31
2018-05-07T04:59:01.007Z,64.12
2018-05-07T05:00:01.159Z,64.22
2018-05-07T05:01:01.296Z,64.47
2018-05-07T05:02:01.433Z,64.75
2018-05-07T05:03:01.569Z,65.42
2018-05-07T05:04:01.720Z,65.90
2018-05-07T05:05:01.857Z,66.56
2018-05-07T05:06:01.999Z,66.85
2018-05-07T05:07:02.135Z,67.30
2018-05-07T05:08:02.276Z,66.92
2018-05-07T05:09:02.417Z,67.21
2018-05-07T05:10:02.551Z,67.11
2018-05-07T05:11:02.689Z,67.11
2018-05-07T05:12:02.821Z,66.85
2018-05-07T05:13:02.959Z,66.92
2018-05-07T05:14:03.090Z,67.97
2018-05-07T05:15:03.223Z,68.16
2018-05-07T05:16:03.362Z,68.57
2018-05-07T05:17:03.501Z,67.97
2018-05-07T05:18:03.711Z,68.63
2018-05-07T05:19:03.768Z,69.40
2018-05-07T05:20:03.915Z,69.17
2018-05-07T05:21:04.083Z,69.37
2018-05-07T05:22:04.191Z,69.27
2018-05-07T05:23:04.329Z,69.68
2018-05-07T05:24:04.477Z,69.21
2018-05-07T05:25:04.619Z,69.40
2018-05-07T05:26:04.754Z,68.63
2018-05-07T05:27:04.891Z,68.35
2018-05-07T05:28:05.025Z,68.19
2018-05-07T05:29:05.159Z,68.00
2018-05-07T05:30:05.300Z,68.38
2018-05-07T05:31:05.438Z,68.29
2018-05-07T05:32:05.577Z,68.00
2018-05-07T05:33:05.711Z,68.10
2018-05-07T05:34:05.837Z,68.26
2018-05-07T05:35:05.970Z,68.10
2018-05-07T05:36:06.109Z,68.38
2018-05-07T05:37:06.250Z,67.81
2018-05-07T05:38:06.390Z,67.43
2018-05-07T05:39:06.526Z,67.91
2018-05-07T05:40:06.664Z,67.71
2018-05-07T05:41:06.798Z,67.81
2018-05-07T05:42:06.942Z,68.00
2018-05-07T05:43:07.077Z,67.18
2018-05-07T05:44:07.218Z,66.89
2018-05-07T05:45:07.426Z,67.27
2018-05-07T05:46:07.556Z,67.18
2018-05-07T05:47:07.573Z,67.36
2018-05-07T05:48:07.704Z,67.18
2018-05-07T05:49:07.844Z,66.89
2018-05-07T05:50:08.081Z,66.89
2018-05-07T05:51:08.120Z,67.18
2018-05-07T05:52:08.267Z,67.08
2018-05-07T05:53:08.462Z,66.79
2018-05-07T05:54:08.527Z,67.02
2018-05-07T05:55:08.667Z,66.99
2018-05-07T05:56:08.869Z,66.89
2018-05-07T05:57:08.949Z,67.02
2018-05-07T05:58:09.082Z,66.35
2018-05-07T05:59:09.230Z,66.06
2018-05-07T06:00:09.384Z,66.35
2018-05-07T06:01:09.527Z,65.68
2018-05-07T06:02:09.666Z,65.87
2018-05-07T06:03:09.802Z,65.87
2018-05-07T06:04:09.944Z,65.87
2018-05-07T06:05:10.084Z,65.97
2018-05-07T06:06:10.222Z,66.06
2018-05-07T06:07:10.361Z,65.68
2018-05-07T06:08:10.503Z,65.58
2018-05-07T06:09:10.636Z,66.00
2018-05-07T06:10:10.779Z,65.33
2018-05-07T06:11:10.912Z,65.61
2018-05-07T06:12:11.051Z,65.14
2018-05-07T06:13:11.190Z,65.23
2018-05-07T06:14:11.330Z,65.52
2018-05-07T06:15:11.474Z,65.52
2018-05-07T06:16:11.619Z,65.81
2018-05-07T06:17:11.760Z,65.42
2018-05-07T06:18:11.905Z,64.85
2018-05-07T06:19:12.047Z,65.42
2018-05-07T06:20:12.181Z,65.23
2018-05-07T06:21:12.379Z,64.85
2018-05-07T06:22:12.460Z,64.98
2018-05-07T06:23:12.606Z,64.69
2018-05-07T06:24:12.745Z,64.88
2018-05-07T06:25:12.879Z,64.22
2018-05-07T06:26:13.016Z,64.40
2018-05-07T06:27:13.218Z,64.50
2018-05-07T06:28:13.304Z,63.93
2018-05-07T06:29:13.444Z,64.02
2018-05-07T06:30:13.588Z,63.45
2018-05-07T06:31:13.728Z,63.35
2018-05-07T06:32:13.927Z,62.97
2018-05-07T06:33:13.995Z,63.73
2018-05-07T06:34:14.215Z,63.45
2018-05-07T06:35:14.277Z,63.64
2018-05-07T06:36:14.413Z,63.64
2018-05-07T06:37:14.558Z,64.25
2018-05-07T06:38:14.690Z,64.34
2018-05-07T06:39:14.829Z,63.39
2018-05-07T06:40:14.963Z,63.39
2018-05-07T06:41:15.102Z,62.81
2018-05-07T06:42:15.279Z,63.48
2018-05-07T06:43:15.372Z,63.76
2018-05-07T06:44:15.517Z,63.76
2018-05-07T06:45:15.645Z,64.25
2018-05-07T06:46:15.783Z,63.19
2018-05-07T06:47:15.923Z,63.29
2018-05-07T06:48:16.060Z,62.33
2018-05-07T06:49:16.200Z,62.90
2018-05-07T06:50:16.340Z,63.57
2018-05-07T06:51:16.477Z,63.00
2018-05-07T06:52:16.618Z,63.29
2018-05-07T06:53:16.760Z,62.71
2018-05-07T06:54:16.896Z,62.93
2018-05-07T06:55:17.034Z,63.48
2018-05-07T06:56:17.181Z,63.22
2018-05-07T06:57:17.314Z,63.22
2018-05-07T06:58:17.456Z,62.55
2018-05-07T06:59:17.611Z,63.03
2018-05-07T07:00:17.754Z,62.93
2018-05-07T07:01:17.889Z,62.74
2018-05-07T07:02:18.955Z,62.74
2018-05-07T07:03:18.216Z,62.84
2018-05-07T07:04:18.354Z,62.55
2018-05-07T07:05:18.493Z,62.07
2018-05-07T07:06:18.633Z,62.84
2018-05-07T07:07:18.766Z,63.42
2018-05-07T07:08:19.015Z,63.51
2018-05-07T07:09:19.048Z,63.22
2018-05-07T07:10:19.183Z,62.93
2018-05-07T07:11:19.320Z,62.74
2018-05-07T07:12:19.458Z,62.74
2018-05-07T07:13:19.597Z,63.13
2018-05-07T07:14:19.737Z,63.22
2018-05-07T07:15:19.871Z,62.46
2018-05-07T07:16:20.079Z,62.84
2018-05-07T07:17:20.151Z,62.65
2018-05-07T07:18:20.289Z,62.74
2018-05-07T07:19:20.432Z,62.59
2018-05-07T07:20:20.569Z,62.68
2018-05-07T07:21:20.706Z,62.87
2018-05-07T07:22:20.844Z,63.06
2018-05-07T07:23:20.981Z,62.10
2018-05-07T07:24:21.120Z,62.59
2018-05-07T07:25:21.256Z,62.49
2018-05-07T07:26:21.408Z,62.39
2018-05-07T07:27:21.554Z,63.06
2018-05-07T07:28:21.691Z,62.49
2018-05-07T07:29:21.828Z,62.87
2018-05-07T07:30:21.969Z,62.30
2018-05-07T07:31:22.103Z,62.39
2018-05-07T07:32:22.240Z,61.53
2018-05-07T07:33:22.379Z,61.66
2018-05-07T07:34:22.518Z,60.79
2018-05-07T07:35:22.654Z,60.70
2018-05-07T07:36:22.792Z,60.79
2018-05-07T07:37:22.940Z,60.60
2018-05-07T07:38:23.074Z,60.03
2018-05-07T07:39:23.265Z,60.50
2018-05-07T07:40:23.354Z,59.64
2018-05-07T07:41:23.489Z,59.64
2018-05-07T07:42:23.628Z,59.83
2018-05-07T07:43:23.782Z,59.45
2018-05-07T07:44:23.919Z,59.74
2018-05-07T07:45:24.060Z,59.55
2018-05-07T07:46:24.246Z,58.87
2018-05-07T07:47:24.389Z,59.09
2018-05-07T07:48:24.533Z,58.71
2018-05-07T07:49:24.667Z,59.00
2018-05-07T07:50:24.807Z,59.09
2018-05-07T07:51:24.947Z,59.00
2018-05-07T07:52:25.101Z,58.62
2018-05-07T07:53:25.282Z,58.42
2018-05-07T07:54:25.370Z,59.09
2018-05-07T07:55:25.526Z,59.29
2018-05-07T07:56:25.669Z,59.09
2018-05-07T07:57:25.813Z,60.35
2018-05-07T07:58:26.450Z,60.05
2018-05-07T07:59:26.081Z,59.48
2018-05-07T08:00:26.226Z,59.77
2018-05-07T08:01:26.371Z,59.58
2018-05-07T08:02:26.501Z,58.62
2018-05-07T08:03:26.645Z,58.14
2018-05-07T08:04:26.787Z,58.55
2018-05-07T08:05:26.927Z,59.00
2018-05-07T08:06:27.073Z,57.97
2018-05-07T08:07:27.212Z,57.50
2018-05-07T08:08:27.349Z,58.84
2018-05-07T08:09:27.488Z,58.45
2018-05-07T08:10:27.636Z,58.55
2018-05-07T08:11:27.775Z,58.17
2018-05-07T08:12:28.019Z,57.59
2018-05-07T08:13:28.059Z,56.24
2018-05-07T08:14:28.201Z,57.50
2018-05-07T08:15:28.341Z,56.05
2018-05-07T08:16:28.480Z,54.23
2018-05-07T08:17:28.621Z,54.16
2018-05-07T08:18:28.783Z,54.06
2018-05-07T08:19:28.906Z,54.06
2018-05-07T08:20:29.045Z,53.01
2018-05-07T08:21:29.193Z,52.72
2018-05-07T08:22:29.335Z,52.72
2018-05-07T08:23:29.471Z,52.72
2018-05-07T08:24:29.611Z,52.81
2018-05-07T08:25:29.770Z,52.05
2018-05-07T08:26:29.911Z,51.79
2018-05-07T08:27:30.046Z,52.34
2018-05-07T08:28:30.191Z,52.72
2018-05-07T08:29:30.338Z,51.98
2018-05-07T08:30:30.559Z,52.55
2018-05-07T08:31:30.617Z,51.98
2018-05-07T08:32:30.763Z,51.79
2018-05-07T08:33:30.897Z,51.98
2018-05-07T08:34:31.038Z,52.46
2018-05-07T08:35:31.182Z,52.84
2018-05-07T08:36:31.323Z,52.84
2018-05-07T08:37:31.457Z,52.75
2018-05-07T08:38:31.598Z,51.40
2018-05-07T08:39:31.739Z,50.82
2018-05-07T08:40:31.875Z,51.04
2018-05-07T08:41:32.025Z,51.62
2018-05-07T08:42:32.181Z,52.20
2018-05-07T08:43:32.322Z,52.46
2018-05-07T08:44:32.462Z,50.66
2018-05-07T08:45:32.608Z,51.53
2018-05-07T08:46:32.745Z,52.20
2018-05-07T08:47:32.884Z,51.62
2018-05-07T08:48:33.024Z,50.76
2018-05-07T08:49:33.167Z,50.95
2018-05-07T08:50:33.313Z,50.76
2018-05-07T08:51:33.469Z,50.76
2018-05-07T08:52:33.594Z,50.85
2018-05-07T08:53:33.739Z,50.76
2018-05-07T08:54:33.957Z,50.46
2018-05-07T08:55:33.982Z,50.27
2018-05-07T08:56:34.117Z,49.12
2018-05-07T08:57:34.254Z,49.12
2018-05-07T08:58:34.391Z,50.46
2018-05-07T08:59:34.545Z,50.76
2018-05-07T09:00:34.810Z,51.72
2018-05-07T09:01:34.813Z,50.87
2018-05-07T09:02:34.953Z,50.08
2018-05-07T09:03:35.090Z,50.76
2018-05-07T09:04:35.227Z,50.37
2018-05-07T09:05:35.373Z,51.84
2018-05-07T09:06:35.514Z,51.93
2018-05-07T09:07:35.652Z,51.07
2018-05-07T09:08:35.790Z,51.17
2018-05-07T09:09:35.937Z,50.20
2018-05-07T09:10:36.082Z,50.40
2018-05-07T09:11:36.217Z,50.30
2018-05-07T09:12:36.359Z,50.10
2018-05-07T09:13:36.551Z,49.91
2018-05-07T09:14:36.643Z,50.87
2018-05-07T09:15:36.785Z,51.26
2018-05-07T09:16:36.926Z,50.78
2018-05-07T09:17:37.067Z,50.87
2018-05-07T09:18:37.208Z,51.07
2018-05-07T09:19:37.346Z,50.97
2018-05-07T09:20:37.483Z,50.40
2018-05-07T09:21:37.633Z,50.42
2018-05-07T09:22:37.779Z,49.84
2018-05-07T09:23:37.926Z,49.84
2018-05-07T09:24:38.064Z,50.42
2018-05-07T09:25:38.207Z,50.78
2018-05-07T09:26:38.347Z,50.90
2018-05-07T09:27:38.481Z,51.86
2018-05-07T09:28:38.620Z,50.90
2018-05-07T09:29:38.761Z,50.51
2018-05-07T09:30:38.903Z,50.32
2018-05-07T09:31:39.099Z,50.90
2018-05-07T09:32:39.181Z,51.76
2018-05-07T09:33:39.320Z,50.32
2018-05-07T09:34:39.464Z,49.36
2018-05-07T09:35:40.472Z,48.97
2018-05-07T09:36:39.758Z,50.04
2018-05-07T09:37:39.897Z,50.42
2018-05-07T09:38:40.045Z,50.13
2018-05-07T09:39:40.178Z,50.13
2018-05-07T09:40:40.316Z,48.88
2018-05-07T09:41:40.460Z,48.69
2018-05-07T09:42:40.596Z,50.23
2018-05-07T09:43:40.739Z,49.10
2018-05-07T09:44:40.887Z,49.10
2018-05-07T09:45:41.017Z,50.06
2018-05-07T09:46:41.164Z,49.10
2018-05-07T09:47:41.311Z,48.33
2018-05-07T09:48:41.451Z,47.56
2018-05-07T09:49:41.588Z,48.13
2018-05-07T09:50:41.734Z,47.46
2018-05-07T09:51:41.872Z,49.10
2018-05-07T09:52:42.016Z,50.06
2018-05-07T09:53:42.157Z,49.96
2018-05-07T09:54:42.291Z,48.71
2018-05-07T09:55:42.481Z,48.52
2018-05-07T09:56:42.585Z,48.83
2018-05-07T09:57:42.717Z,48.33
2018-05-07T09:58:42.851Z,48.74
2018-05-07T09:59:42.992Z,48.54
2018-05-07T10:00:43.132Z,48.93
2018-05-07T10:01:43.281Z,48.64
2018-05-07T10:02:43.412Z,47.77
2018-05-07T10:03:43.565Z,47.19
2018-05-07T10:04:43.705Z,47.10
2018-05-07T10:05:43.852Z,47.77
2018-05-07T10:06:43.990Z,47.77
2018-05-07T10:07:44.134Z,47.19
2018-05-07T10:08:44.280Z,46.81
2018-05-07T10:09:44.421Z,46.52
2018-05-07T10:10:44.554Z,46.71
2018-05-07T10:11:44.692Z,47.00
2018-05-07T10:12:44.829Z,46.71
2018-05-07T10:13:44.974Z,49.02
2018-05-07T10:14:45.103Z,49.41
2018-05-07T10:15:45.255Z,47.49
2018-05-07T10:16:45.396Z,48.06
2018-05-07T10:17:45.534Z,48.06
2018-05-07T10:18:45.685Z,47.89
2018-05-07T10:19:45.841Z,47.70
2018-05-07T10:20:45.977Z,47.03
2018-05-07T10:21:46.115Z,47.60
2018-05-07T10:22:46.253Z,48.08
2018-05-07T10:23:46.397Z,47.41
2018-05-07T10:24:46.538Z,46.73
2018-05-07T10:25:46.676Z,46.25
2018-05-07T10:26:46.814Z,45.68
2018-05-07T10:27:46.967Z,46.93
2018-05-07T10:28:47.099Z,46.35
2018-05-07T10:29:47.259Z,45.77
2018-05-07T10:30:47.383Z,46.55
2018-05-07T10:31:47.536Z,46.25
2018-05-07T10:32:47.680Z,46.86
2018-05-07T10:33:47.819Z,46.83
2018-05-07T10:34:47.978Z,46.56
2018-05-07T10:35:48.117Z,46.66
2018-05-07T10:36:48.254Z,45.12
2018-05-07T10:37:48.408Z,45.51
2018-05-07T10:38:48.559Z,45.70
2018-05-07T10:39:48.702Z,46.37
2018-05-07T10:40:48.852Z,45.99
2018-05-07T10:41:48.993Z,45.60
2018-05-07T10:42:49.226Z,45.72
2018-05-07T10:43:49.269Z,45.62
2018-05-07T10:44:49.420Z,46.28
2018-05-07T10:45:49.561Z,45.03
2018-05-07T10:46:49.715Z,45.70
2018-05-07T10:47:49.854Z,46.11
2018-05-07T10:48:49.989Z,45.53
2018-05-07T10:49:50.995Z,45.62
2018-05-07T10:50:50.281Z,46.11
2018-05-07T10:51:50.419Z,45.14
2018-05-07T10:52:50.557Z,44.01
2018-05-07T10:53:50.701Z,43.91
2018-05-07T10:54:50.844Z,44.29
2018-05-07T10:55:50.985Z,44.10
2018-05-07T10:56:51.127Z,42.87
2018-05-07T10:57:51.267Z,41.91
2018-05-07T10:58:51.418Z,42.87
2018-05-07T10:59:51.556Z,43.16
2018-05-07T11:00:51.702Z,43.64
2018-05-07T11:01:51.844Z,43.84
2018-05-07T11:02:51.989Z,42.46
2018-05-07T11:03:52.136Z,41.98
2018-05-07T11:04:52.274Z,42.66
2018-05-07T11:05:52.422Z,42.75
2018-05-07T11:06:52.559Z,43.14
2018-05-07T11:07:52.701Z,44.12
2018-05-07T11:08:52.844Z,42.77
2018-05-07T11:09:52.987Z,42.94
2018-05-07T11:10:53.129Z,42.68
2018-05-07T11:11:53.271Z,41.91
2018-05-07T11:12:53.428Z,42.58
2018-05-07T11:13:53.581Z,43.93
2018-05-07T11:14:53.723Z,42.87
2018-05-07T11:15:53.870Z,42.58
2018-05-07T11:16:54.002Z,43.45
2018-05-07T11:17:54.150Z,43.16
2018-05-07T11:18:54.296Z,43.93
2018-05-07T11:19:54.438Z,42.87
2018-05-07T11:20:54.595Z,41.61
2018-05-07T11:21:54.735Z,42.48
2018-05-07T11:22:54.882Z,42.21
2018-05-07T11:23:55.027Z,41.63
2018-05-07T11:24:55.167Z,41.63
2018-05-07T11:25:55.308Z,42.21
2018-05-07T11:26:55.455Z,41.83
2018-05-07T11:27:55.592Z,41.35
2018-05-07T11:28:55.736Z,41.73
2018-05-07T11:29:55.883Z,41.73
2018-05-07T11:30:56.025Z,41.44
2018-05-07T11:31:56.149Z,41.35
2018-05-07T11:32:56.320Z,41.35
2018-05-07T11:33:56.461Z,41.15
2018-05-07T11:34:56.607Z,42.62
2018-05-07T11:35:56.981Z,42.82
2018-05-07T11:36:56.853Z,41.36
2018-05-07T11:37:57.008Z,40.40
2018-05-07T11:38:57.140Z,39.72
2018-05-07T11:39:57.284Z,40.11
2018-05-07T11:40:57.428Z,40.59
2018-05-07T11:41:57.574Z,40.59
2018-05-07T11:42:57.771Z,40.98
2018-05-07T11:43:57.903Z,42.14
2018-05-07T11:44:58.045Z,42.93
2018-05-07T11:45:58.193Z,42.16
2018-05-07T11:46:58.336Z,41.67
2018-05-07T11:47:58.485Z,40.03
2018-05-07T11:48:58.627Z,39.45
2018-05-07T11:49:58.773Z,39.45
2018-05-07T11:50:58.915Z,39.55
2018-05-07T11:51:59.055Z,40.42
2018-05-07T11:52:59.201Z,39.76
2018-05-07T11:53:59.355Z,39.67
2018-05-07T11:54:59.490Z,39.47
2018-05-07T11:55:59.641Z,38.89
2018-05-07T11:56:59.790Z,38.02
2018-05-07T11:57:59.950Z,39.09
2018-05-07T11:59:00.090Z,37.63
2018-05-07T12:00:00.231Z,36.66
2018-05-07T12:01:00.382Z,36.66
2018-05-07T12:02:00.538Z,37.05
2018-05-07T12:03:00.684Z,36.20
2018-05-07T12:04:00.828Z,37.65
2018-05-07T12:05:00.973Z,37.07
2018-05-07T12:06:01.127Z,37.65
2018-05-07T12:07:01.277Z,39.29
2018-05-07T12:08:01.417Z,39.11
2018-05-07T12:09:01.557Z,38.53
2018-05-07T12:10:01.725Z,37.75
2018-05-07T12:11:01.868Z,37.07
2018-05-07T12:12:02.007Z,36.40
2018-05-07T12:13:02.144Z,36.90
2018-05-07T12:14:02.305Z,36.90
2018-05-07T12:15:02.445Z,38.06
2018-05-07T12:16:02.670Z,36.41
2018-05-07T12:17:02.730Z,36.51
2018-05-07T12:18:02.871Z,35.83
2018-05-07T12:19:03.015Z,36.02
2018-05-07T12:20:03.158Z,36.90
2018-05-07T12:21:03.315Z,36.04
2018-05-07T12:22:03.448Z,35.93
2018-05-07T12:23:03.604Z,35.44
2018-05-07T12:24:03.749Z,35.73
2018-05-07T12:25:03.910Z,35.54
2018-05-07T12:26:04.040Z,35.75
2018-05-07T12:27:04.200Z,35.66
2018-05-07T12:28:04.354Z,35.56
2018-05-07T12:29:04.497Z,35.83
2018-05-07T12:30:04.653Z,36.91
2018-05-07T12:31:04.790Z,37.59
2018-05-07T12:32:04.935Z,35.94
2018-05-07T12:33:05.090Z,35.66
2018-05-07T12:34:05.219Z,35.75
2018-05-07T12:35:05.378Z,35.56
2018-05-07T12:36:05.529Z,34.97
2018-05-07T12:37:05.687Z,35.75
2018-05-07T12:38:05.838Z,35.75
2018-05-07T12:39:05.978Z,34.97
2018-05-07T12:40:06.127Z,35.07
2018-05-07T12:41:06.266Z,35.28
2018-05-07T12:42:06.425Z,34.70
2018-05-07T12:43:06.570Z,33.83
2018-05-07T12:44:06.712Z,34.78
2018-05-07T12:45:06.852Z,35.48
2018-05-07T12:46:06.987Z,35.19
2018-05-07T12:47:07.132Z,33.73
2018-05-07T12:48:07.279Z,34.02
2018-05-07T12:49:07.423Z,35.67
2018-05-07T12:50:07.574Z,36.06
2018-05-07T12:51:07.720Z,36.44
2018-05-07T12:52:07.865Z,34.70
2018-05-07T12:53:08.009Z,34.02
2018-05-07T12:54:08.155Z,34.51